Terminal Aerodrome Forecast
Issued by NWS

Home | Current Version | Previous Version | Text Only | Print | Product List | Glossary On
Versions: 1 2 3 4 5 6 7 8 9 10 11 12 13 14 15
000
FTUS43 KIND 271725
TAFBMG
TAF
KBMG 271725Z 2718/2818 25011G19KT P6SM SKC
     FM280000 23005KT P6SM SKC
     FM281000 24004KT P6SM BKN060
     FM281400 26006KT P6SM VCSH BKN020 OVC060=

USA.gov is the U.S. government's official web portal to all federal, state and local government web resources and services.